createdAt,value
2022-10-03T00:02:29.773Z,85.71
2022-10-03T00:05:33.222Z,85.81
2022-10-03T00:08:49.638Z,85.96
2022-10-03T00:11:43.926Z,86.05
2022-10-03T00:14:52.539Z,86.12
2022-10-03T00:17:41.610Z,86.19
2022-10-03T00:20:49.107Z,86.18
2022-10-03T00:23:36.927Z,86.18
2022-10-03T00:26:31.889Z,86.12
2022-10-03T00:29:19.879Z,86.08
2022-10-03T00:31:59.926Z,86.09
2022-10-03T00:34:50.944Z,86.12
2022-10-03T00:37:41.036Z,86.10
2022-10-03T00:40:35.604Z,86.06
2022-10-03T00:43:17.421Z,86.05
2022-10-03T00:45:57.846Z,86.06
2022-10-03T00:48:38.915Z,86.06
2022-10-03T00:51:33.494Z,85.96
2022-10-03T00:54:10.751Z,85.94
2022-10-03T00:56:53.661Z,85.91
2022-10-03T00:59:51.692Z,85.84
2022-10-03T01:02:54.745Z,85.71
2022-10-03T01:05:47.526Z,85.59
2022-10-03T01:08:57.776Z,85.53
2022-10-03T01:12:22.584Z,85.44
2022-10-03T01:15:15.009Z,85.34
2022-10-03T01:18:21.582Z,85.23
2022-10-03T01:21:23.970Z,85.15
2022-10-03T01:24:17.780Z,85.08
2022-10-03T01:27:13.375Z,84.98
2022-10-03T01:30:15.602Z,84.85
2022-10-03T01:33:10.012Z,84.69
2022-10-03T01:35:48.742Z,84.55
2022-10-03T01:38:24.847Z,84.42
2022-10-03T01:41:24.199Z,84.33
2022-10-03T01:44:00.747Z,84.28
2022-10-03T01:46:53.893Z,84.02
2022-10-03T01:49:40.944Z,83.90
2022-10-03T01:52:35.560Z,83.71
2022-10-03T01:55:22.693Z,83.61
2022-10-03T01:57:56.816Z,83.48
2022-10-03T02:00:25.423Z,83.27
2022-10-03T02:03:21.834Z,83.18
2022-10-03T02:06:18.674Z,83.15
2022-10-03T02:09:15.971Z,83.02
2022-10-03T02:11:49.514Z,82.93
2022-10-03T02:14:25.421Z,82.88
2022-10-03T02:17:03.330Z,82.84
2022-10-03T02:19:59.972Z,82.75
2022-10-03T02:22:35.519Z,82.68
2022-10-03T02:25:20.700Z,82.68
2022-10-03T02:27:50.706Z,82.60
2022-10-03T02:30:54.412Z,82.55
2022-10-03T02:33:58.108Z,82.41
2022-10-03T02:37:18.905Z,82.29
2022-10-03T02:40:19.641Z,82.25
2022-10-03T02:43:22.666Z,82.21
2022-10-03T02:46:32.813Z,82.23
2022-10-03T02:49:20.716Z,82.15
2022-10-03T02:52:07.479Z,82.06
2022-10-03T02:55:25.142Z,81.99
2022-10-03T02:58:27.925Z,81.87
2022-10-03T03:01:55.011Z,81.75
2022-10-03T03:05:19.188Z,81.74
2022-10-03T03:08:35.133Z,81.64
2022-10-03T03:11:29.709Z,81.47
2022-10-03T03:14:38.274Z,81.30
2022-10-03T03:17:34.574Z,81.21
2022-10-03T03:20:15.885Z,81.25
2022-10-03T03:22:59.650Z,81.20
2022-10-03T03:25:44.466Z,81.07
2022-10-03T03:28:55.789Z,80.87
2022-10-03T03:31:54.049Z,80.88
2022-10-03T03:35:09.355Z,80.84
2022-10-03T03:38:07.847Z,80.78
2022-10-03T03:41:02.420Z,80.77
2022-10-03T03:43:56.788Z,80.77
2022-10-03T03:46:32.002Z,80.73
2022-10-03T03:49:18.472Z,80.66
2022-10-03T03:52:03.021Z,80.77
2022-10-03T03:54:39.800Z,80.78
2022-10-03T03:57:54.841Z,80.84
2022-10-03T04:00:30.882Z,80.88
2022-10-03T04:03:46.765Z,80.92
2022-10-03T04:06:43.041Z,80.99
2022-10-03T04:09:24.363Z,80.96
2022-10-03T04:12:10.242Z,80.90
2022-10-03T04:15:03.020Z,80.84
2022-10-03T04:18:00.248Z,80.85
2022-10-03T04:20:59.304Z,80.74
2022-10-03T04:24:12.984Z,80.70
2022-10-03T04:27:26.913Z,80.59
2022-10-03T04:30:23.114Z,80.47
2022-10-03T04:33:08.697Z,80.43
2022-10-03T04:35:56.590Z,80.30
2022-10-03T04:39:10.309Z,80.19
2022-10-03T04:41:52.641Z,80.13
2022-10-03T04:45:15.698Z,80.12
2022-10-03T04:48:01.305Z,80.14
2022-10-03T04:50:57.208Z,79.98
2022-10-03T04:53:39.327Z,80.00
2022-10-03T04:56:26.223Z,79.96
2022-10-03T04:59:00.363Z,79.95
2022-10-03T05:02:17.370Z,80.02
2022-10-03T05:05:26.676Z,80.25
2022-10-03T05:08:28.949Z,80.93
2022-10-03T05:11:21.026Z,81.68
2022-10-03T05:14:27.759Z,82.10
2022-10-03T05:17:06.786Z,82.76
2022-10-03T05:19:51.141Z,83.18
2022-10-03T05:23:02.016Z,83.55
2022-10-03T05:26:45.728Z,83.74
2022-10-03T05:29:24.695Z,83.79
2022-10-03T05:32:10.321Z,84.02
2022-10-03T05:35:17.241Z,84.11
2022-10-03T05:38:26.547Z,83.96
2022-10-03T05:40:59.117Z,83.95
2022-10-03T05:43:44.339Z,83.95
2022-10-03T05:46:22.271Z,84.10
2022-10-03T05:49:42.406Z,84.13
2022-10-03T05:52:38.588Z,84.22
2022-10-03T05:55:29.083Z,84.30
2022-10-03T05:58:24.920Z,84.31
2022-10-03T06:01:30.414Z,84.39
2022-10-03T06:04:15.567Z,84.38
2022-10-03T06:06:50.741Z,84.37
2022-10-03T06:09:37.239Z,84.43
2022-10-03T06:12:29.009Z,84.52
2022-10-03T06:15:17.445Z,84.58
2022-10-03T06:17:55.303Z,84.49
2022-10-03T06:20:46.352Z,84.45
2022-10-03T06:23:37.348Z,84.29
2022-10-03T06:27:04.817Z,84.17
2022-10-03T06:29:56.074Z,83.95
2022-10-03T06:32:31.546Z,83.78
2022-10-03T06:35:06.844Z,83.71
2022-10-03T06:38:03.235Z,83.58
2022-10-03T06:40:54.743Z,83.47
2022-10-03T06:43:44.135Z,83.48
2022-10-03T06:46:19.015Z,83.31
2022-10-03T06:49:00.755Z,83.17
2022-10-03T06:51:35.079Z,83.24
2022-10-03T06:54:23.634Z,83.33
2022-10-03T06:57:58.623Z,83.20
2022-10-03T07:01:11.603Z,83.10
2022-10-03T07:03:56.430Z,83.05
2022-10-03T07:06:38.725Z,82.99
2022-10-03T07:09:32.501Z,82.94
2022-10-03T07:12:33.414Z,82.89
2022-10-03T07:15:13.008Z,83.03
2022-10-03T07:18:27.366Z,83.13
2022-10-03T07:21:30.594Z,82.98
2022-10-03T07:24:16.292Z,83.04
2022-10-03T07:27:01.409Z,83.03
2022-10-03T07:30:04.442Z,82.96
2022-10-03T07:32:58.289Z,83.04
2022-10-03T07:36:45.242Z,82.87
2022-10-03T07:39:42.699Z,82.46
2022-10-03T07:42:11.817Z,82.19
2022-10-03T07:45:18.632Z,81.73
2022-10-03T07:48:26.914Z,81.46
2022-10-03T07:51:12.087Z,81.26
2022-10-03T07:54:24.199Z,81.06
2022-10-03T07:57:37.375Z,80.64
2022-10-03T08:00:12.336Z,80.21
2022-10-03T08:03:36.243Z,80.18
2022-10-03T08:06:41.798Z,80.30
2022-10-03T08:09:08.377Z,80.10
2022-10-03T08:12:29.869Z,80.17
2022-10-03T08:15:26.491Z,80.17
2022-10-03T08:18:22.025Z,79.85
2022-10-03T08:21:00.381Z,79.85
2022-10-03T08:24:07.077Z,79.71
2022-10-03T08:26:51.604Z,79.70
2022-10-03T08:30:28.900Z,79.61
2022-10-03T08:33:23.090Z,79.48
2022-10-03T08:36:14.001Z,79.40
2022-10-03T08:39:10.050Z,79.33
2022-10-03T08:42:10.894Z,79.14
2022-10-03T08:45:33.013Z,79.09
2022-10-03T08:48:50.550Z,79.18
2022-10-03T08:51:49.019Z,78.47
2022-10-03T08:54:44.479Z,77.74
2022-10-03T08:57:45.404Z,77.51
2022-10-03T09:00:21.299Z,77.55
2022-10-03T09:03:35.249Z,77.32
2022-10-03T09:06:58.697Z,76.80
2022-10-03T09:10:26.445Z,76.92
2022-10-03T09:13:25.729Z,76.62
2022-10-03T09:16:39.226Z,76.27
2022-10-03T09:19:25.390Z,75.39
2022-10-03T09:22:22.491Z,75.12
2022-10-03T09:25:06.164Z,74.85
2022-10-03T09:27:57.212Z,74.02
2022-10-03T09:30:53.676Z,74.11
2022-10-03T09:33:45.894Z,74.01
2022-10-03T09:36:27.917Z,73.98
2022-10-03T09:39:12.711Z,73.35
2022-10-03T09:41:59.882Z,72.77
2022-10-03T09:44:57.042Z,72.53
2022-10-03T09:48:07.699Z,72.28
2022-10-03T09:51:01.419Z,72.56
2022-10-03T09:53:42.884Z,72.27
2022-10-03T09:56:47.293Z,72.08
2022-10-03T09:59:32.928Z,72.17
2022-10-03T10:02:37.782Z,72.22
2022-10-03T10:05:31.721Z,71.72
2022-10-03T10:08:13.518Z,71.56
2022-10-03T10:11:34.290Z,71.57
2022-10-03T10:14:19.857Z,71.48
2022-10-03T10:17:17.098Z,70.59
2022-10-03T10:20:24.189Z,70.73
2022-10-03T10:23:11.394Z,70.60
2022-10-03T10:26:29.591Z,70.52
2022-10-03T10:29:26.975Z,70.85
2022-10-03T10:33:08.136Z,71.43
2022-10-03T10:35:50.334Z,71.35
2022-10-03T10:38:39.707Z,70.96
2022-10-03T10:42:13.797Z,71.03
2022-10-03T10:44:56.751Z,71.51
2022-10-03T10:48:23.183Z,72.30
2022-10-03T10:51:09.351Z,72.76
2022-10-03T10:54:03.878Z,73.31
2022-10-03T10:57:22.267Z,74.33
2022-10-03T11:00:20.747Z,74.58
2022-10-03T11:03:24.511Z,74.85
2022-10-03T11:06:38.168Z,74.92
2022-10-03T11:09:42.067Z,75.51
2022-10-03T11:12:46.144Z,75.88
2022-10-03T11:15:53.505Z,76.39
2022-10-03T11:19:16.505Z,76.91
2022-10-03T11:22:08.065Z,77.31
2022-10-03T11:25:02.707Z,77.90
2022-10-03T11:28:09.172Z,78.30
2022-10-03T11:30:52.484Z,79.05
2022-10-03T11:34:10.715Z,78.99
2022-10-03T11:37:03.092Z,79.47
2022-10-03T11:39:38.877Z,79.72
2022-10-03T11:42:20.212Z,79.90
2022-10-03T11:44:58.667Z,79.80
2022-10-03T11:47:45.445Z,80.17
2022-10-03T11:50:27.166Z,80.33
2022-10-03T11:53:11.768Z,80.60
2022-10-03T11:55:55.225Z,81.11
2022-10-03T11:58:33.430Z,81.09
2022-10-03T12:01:57.840Z,81.50
2022-10-03T12:04:50.919Z,81.30
2022-10-03T12:07:58.668Z,81.65
2022-10-03T12:11:16.852Z,81.95
2022-10-03T12:14:24.816Z,81.93
2022-10-03T12:17:15.477Z,81.86
2022-10-03T12:20:29.745Z,81.88
2022-10-03T12:23:30.912Z,82.03
2022-10-03T12:26:02.477Z,82.19
2022-10-03T12:28:44.530Z,82.36
2022-10-03T12:31:37.033Z,82.37
2022-10-03T12:34:37.985Z,82.38
2022-10-03T12:37:36.727Z,82.40
2022-10-03T12:40:51.536Z,82.40
2022-10-03T12:44:09.679Z,82.24
2022-10-03T12:47:08.664Z,82.30
2022-10-03T12:50:07.820Z,82.53
2022-10-03T12:53:02.284Z,82.22
2022-10-03T12:55:33.291Z,82.27
2022-10-03T12:58:39.372Z,81.31
2022-10-03T13:01:55.582Z,79.50
2022-10-03T13:04:41.254Z,78.67
2022-10-03T13:07:47.529Z,77.12
2022-10-03T13:10:55.280Z,76.41
2022-10-03T13:14:23.140Z,75.56
2022-10-03T13:17:18.678Z,73.87
2022-10-03T13:19:54.609Z,73.69
2022-10-03T13:22:37.087Z,72.73
2022-10-03T13:25:25.867Z,72.07
2022-10-03T13:28:11.868Z,71.40
2022-10-03T13:30:58.117Z,70.58
2022-10-03T13:33:32.552Z,70.42
2022-10-03T13:36:14.336Z,70.09
2022-10-03T13:38:57.600Z,69.82
2022-10-03T13:41:59.208Z,70.08
2022-10-03T13:44:36.600Z,70.42
2022-10-03T13:47:19.192Z,70.49
2022-10-03T13:50:00.860Z,70.76
2022-10-03T13:52:44.937Z,70.79
2022-10-03T13:55:25.955Z,71.04
2022-10-03T13:58:21.113Z,71.23
2022-10-03T14:01:13.117Z,71.61
2022-10-03T14:04:22.298Z,71.74
2022-10-03T14:07:20.615Z,71.97
2022-10-03T14:10:05.571Z,72.16
2022-10-03T14:13:10.084Z,72.39
2022-10-03T14:16:12.827Z,72.51
2022-10-03T14:18:51.119Z,72.35
2022-10-03T14:22:21.879Z,72.49
2022-10-03T14:25:20.912Z,72.39
2022-10-03T14:27:54.142Z,72.64
2022-10-03T14:31:04.722Z,72.72
2022-10-03T14:33:56.065Z,72.89
2022-10-03T14:36:48.034Z,73.30
2022-10-03T14:39:32.585Z,73.57
2022-10-03T14:43:06.395Z,73.60
2022-10-03T14:45:40.998Z,73.91
2022-10-03T14:48:21.611Z,74.11
2022-10-03T14:50:56.724Z,74.22
2022-10-03T14:53:29.117Z,74.30
2022-10-03T14:56:05.787Z,74.41
2022-10-03T14:58:44.644Z,74.53
2022-10-03T15:02:01.903Z,75.06
2022-10-03T15:05:05.649Z,75.38
2022-10-03T15:07:37.368Z,75.42
2022-10-03T15:10:11.775Z,75.21
2022-10-03T15:12:42.335Z,74.92
2022-10-03T15:15:20.494Z,74.63
2022-10-03T15:17:53.895Z,74.59
2022-10-03T15:20:26.398Z,74.40
2022-10-03T15:22:56.566Z,73.87
2022-10-03T15:25:35.078Z,73.82
2022-10-03T15:28:22.709Z,73.42
2022-10-03T15:31:13.805Z,73.25
2022-10-03T15:33:42.271Z,73.11
2022-10-03T15:36:24.934Z,72.32
2022-10-03T15:38:54.902Z,71.07
2022-10-03T15:41:42.680Z,70.73
2022-10-03T15:44:49.559Z,70.31
2022-10-03T15:47:34.440Z,70.18
2022-10-03T15:50:32.780Z,69.97
2022-10-03T15:53:36.247Z,70.13
2022-10-03T15:56:14.603Z,70.36
2022-10-03T15:58:56.149Z,70.55
2022-10-03T16:01:27.228Z,70.57
2022-10-03T16:04:14.482Z,70.78
2022-10-03T16:07:10.708Z,70.83
2022-10-03T16:10:27.901Z,70.95
2022-10-03T16:13:19.838Z,71.05
2022-10-03T16:16:08.292Z,71.06
2022-10-03T16:18:55.686Z,70.96
2022-10-03T16:21:42.817Z,71.01
2022-10-03T16:24:40.409Z,71.05
2022-10-03T16:27:29.080Z,71.13
2022-10-03T16:30:11.032Z,71.04
2022-10-03T16:32:44.491Z,71.04
2022-10-03T16:35:35.073Z,71.09
2022-10-03T16:38:05.999Z,71.23
2022-10-03T16:40:33.856Z,71.31
2022-10-03T16:43:08.982Z,71.33
2022-10-03T16:45:44.010Z,71.37
2022-10-03T16:48:42.493Z,71.45
2022-10-03T16:51:25.455Z,71.53
2022-10-03T16:53:54.001Z,71.54
2022-10-03T16:56:36.554Z,71.62
2022-10-03T16:59:11.472Z,72.02
2022-10-03T17:01:50.625Z,72.16
2022-10-03T17:04:32.923Z,72.37
2022-10-03T17:07:03.017Z,72.53
2022-10-03T17:09:50.505Z,72.70
2022-10-03T17:12:38.136Z,72.98
2022-10-03T17:15:09.437Z,73.22
2022-10-03T17:18:01.004Z,73.53
2022-10-03T17:20:41.456Z,73.69
2022-10-03T17:23:38.405Z,73.78
2022-10-03T17:26:11.400Z,73.97
2022-10-03T17:29:04.117Z,74.16
2022-10-03T17:32:05.104Z,74.40
2022-10-03T17:34:49.655Z,74.67
2022-10-03T17:37:56.537Z,74.86
2022-10-03T17:40:55.967Z,75.18
2022-10-03T17:43:44.415Z,75.36
2022-10-03T17:46:29.527Z,75.59
2022-10-03T17:49:24.700Z,75.57
2022-10-03T17:51:52.672Z,75.69
2022-10-03T17:54:52.853Z,75.83
2022-10-03T17:57:36.431Z,75.90
2022-10-03T18:00:35.353Z,76.03
2022-10-03T18:03:10.369Z,76.18
2022-10-03T18:05:46.017Z,76.35
2022-10-03T18:08:18.477Z,76.47
2022-10-03T18:10:55.469Z,76.62
2022-10-03T18:13:30.710Z,76.77
2022-10-03T18:24:51.511Z,77.40
2022-10-03T18:27:50.973Z,77.79
2022-10-03T18:30:49.473Z,78.02
2022-10-03T18:33:22.802Z,78.16
2022-10-03T18:35:50.171Z,78.40
2022-10-03T18:38:29.093Z,78.58
2022-10-03T18:41:00.449Z,78.77
2022-10-03T18:43:58.025Z,78.92
2022-10-03T18:46:42.538Z,78.93
2022-10-03T18:49:34.496Z,79.02
2022-10-03T18:52:25.304Z,79.11
2022-10-03T18:55:04.793Z,79.17
2022-10-03T18:58:00.063Z,79.32
2022-10-03T19:00:30.610Z,79.37
2022-10-03T19:03:19.129Z,79.48
2022-10-03T19:06:07.778Z,79.49
2022-10-03T19:08:57.872Z,79.60
2022-10-03T19:11:41.644Z,79.69
2022-10-03T19:14:58.506Z,79.71
2022-10-03T19:17:55.992Z,79.71
2022-10-03T19:20:35.925Z,79.70
2022-10-03T19:23:13.614Z,79.67
2022-10-03T19:25:43.169Z,79.64
2022-10-03T19:28:22.928Z,79.53
2022-10-03T19:31:35.988Z,79.39
2022-10-03T19:34:21.874Z,79.25
2022-10-03T19:36:51.206Z,79.14
2022-10-03T19:39:20.378Z,79.06
2022-10-03T19:42:18.231Z,79.05
2022-10-03T19:44:45.751Z,79.07
2022-10-03T19:47:36.212Z,79.14
2022-10-03T19:50:18.812Z,79.27
2022-10-03T19:52:47.584Z,79.39
2022-10-03T19:55:38.625Z,79.49
2022-10-03T19:58:24.128Z,79.68
2022-10-03T20:00:58.372Z,79.76
2022-10-03T20:03:54.245Z,79.91
2022-10-03T20:06:40.505Z,80.00
2022-10-03T20:09:30.829Z,80.09
2022-10-03T20:12:05.422Z,80.24
2022-10-03T20:15:30.019Z,80.24
2022-10-03T20:19:25.043Z,80.35
2022-10-03T20:22:07.434Z,80.46
2022-10-03T20:24:46.825Z,80.66
2022-10-03T20:27:45.597Z,80.75
2022-10-03T20:31:04.453Z,80.73
2022-10-03T20:33:36.711Z,80.73
2022-10-03T20:36:14.716Z,80.77
2022-10-03T20:39:47.226Z,80.78
2022-10-03T20:42:53.350Z,80.78
2022-10-03T20:45:43.192Z,80.77
2022-10-03T20:49:09.740Z,80.73
2022-10-03T20:52:10.291Z,80.69
2022-10-03T20:55:09.593Z,80.74
2022-10-03T20:58:19.564Z,80.70
2022-10-03T21:01:06.342Z,80.77
2022-10-03T21:03:42.789Z,80.79
2022-10-03T21:06:32.323Z,80.80
2022-10-03T21:09:00.679Z,80.78
2022-10-03T21:11:30.504Z,80.84
2022-10-03T21:14:14.661Z,80.90
2022-10-03T21:16:47.916Z,80.93
2022-10-03T21:19:34.441Z,80.98
2022-10-03T21:22:03.839Z,81.12
2022-10-03T21:25:01.888Z,81.19
2022-10-03T21:27:28.668Z,81.29
2022-10-03T21:30:03.144Z,81.37
2022-10-03T21:32:41.469Z,81.45
2022-10-03T21:35:27.346Z,81.54
2022-10-03T21:38:27.870Z,81.57
2022-10-03T21:41:07.110Z,81.59
2022-10-03T21:44:01.551Z,81.60
2022-10-03T21:46:57.498Z,81.61
2022-10-03T21:49:54.504Z,81.67
2022-10-03T21:52:30.109Z,81.68
2022-10-03T21:55:51.367Z,81.71
2022-10-03T21:59:05.313Z,81.72
2022-10-03T22:01:40.350Z,81.77
2022-10-03T22:05:01.541Z,81.82
2022-10-03T22:07:31.048Z,81.81
2022-10-03T22:09:57.449Z,81.89
2022-10-03T22:12:27.668Z,81.93
2022-10-03T22:15:09.618Z,81.97
2022-10-03T22:17:59.355Z,81.96
2022-10-03T22:20:30.020Z,82.00
2022-10-03T22:24:01.378Z,82.06
2022-10-03T22:27:01.951Z,82.04
2022-10-03T22:29:47.665Z,82.07
2022-10-03T22:32:49.237Z,82.07
2022-10-03T22:35:32.326Z,82.13
2022-10-03T22:37:59.430Z,82.14
2022-10-03T22:40:29.939Z,82.07
2022-10-03T22:43:09.692Z,82.06
2022-10-03T22:45:40.839Z,82.06
2022-10-03T22:48:13.610Z,82.07
2022-10-03T22:50:41.400Z,82.06
2022-10-03T22:53:11.034Z,82.00
2022-10-03T22:55:42.781Z,81.99
2022-10-03T22:58:11.578Z,81.99
2022-10-03T23:00:38.205Z,81.98
2022-10-03T23:03:19.748Z,81.97
2022-10-03T23:06:22.344Z,81.94
2022-10-03T23:09:23.183Z,81.90
2022-10-03T23:11:54.728Z,81.85
2022-10-03T23:14:27.969Z,81.81
2022-10-03T23:17:38.449Z,81.80
2022-10-03T23:20:28.265Z,81.73
2022-10-03T23:23:01.300Z,81.69
2022-10-03T23:25:55.248Z,81.62
2022-10-03T23:29:10.759Z,81.57
2022-10-03T23:32:09.697Z,81.51
2022-10-03T23:34:47.852Z,81.45
2022-10-03T23:37:17.746Z,81.40
2022-10-03T23:39:53.836Z,81.36
2022-10-03T23:42:32.553Z,81.33
2022-10-03T23:45:10.253Z,81.29
2022-10-03T23:48:01.788Z,81.29
2022-10-03T23:50:46.805Z,81.25
2022-10-03T23:53:43.265Z,81.21
2022-10-03T23:56:20.668Z,81.18
2022-10-03T23:59:02.376Z,81.15
